Prescott, Washington
Current Conditions -  °F | °C
As of 4:53 AM on Wednesday 22 Oct 2014 (Local Time) from KALW Reporting Station
Broken Clouds Broken Clouds  
Wind Chill: 59°   Ceiling: 11000
Heat Index: 59°   Visibility: 10mi
Dew Point: 36°   Wind: 10mph
Humidity: 42%   Direction: 170°S
Pressure: 29.88"   Gusts: NA
Location:  46.3°N, 118.31°W
Report Text: KALW 221153Z AUTO 17009KT 10SM BKN110 15/02 A2988 RMK AO2 SLP117 T01500022 10150 20083 58009
Loading
Personal Weather Stations






























Interactive Weather Map
Tropical Storm Tracking
New forecast layout! Learn more

10-Day Weather Forecast

Advertisements
Track Severe Weather on mobile